Monticello, Utah
Current Conditions -  °F | °C
As of 2:15 AM on Friday 24 Oct 2014 (Local Time) from KBDG Reporting Station
Clear Clear  
Wind Chill: 47°   Ceiling: Unl
Heat Index: 47°   Visibility: 10mi
Dew Point: 30°   Wind: 3mph
Humidity: 51%   Direction: 360°N
Pressure: 30.35"   Gusts: NA
Location:  37.87°N, 109.34°W
Report Text: KBDG 240815Z AUTO 36003KT 10SM CLR 09/M01 A3035 RMK AO1 T00851011
Loading
Personal Weather Stations






























Interactive Weather Map
Tropical Storm Tracking
New forecast layout! Learn more

10-Day Weather Forecast

Advertisements
Track Severe Weather on mobile